Aérodrome :
LOGIN :

S'inscrire | Disclaimer

   EN    FR    IT 

 










Légende :    VFR   VFR Marginal   IFR   IFR Intensif   IFR Très Intensif
Visi : 
Plafond : 
>= 8 km
>= 3000ft
5 à 8 km
1000 à 3000 ft
1500m à 5 km
500 à 1000 ft
800 à 1500m
200 à 500 ft
< 800m
< 200 ft
Symboles :   Orages  Brouillard  Fortes neiges  Fortes précipitations  Vent > 20 kt
SIGMETs :   Divers  Orages  Givrage  Turbulence  Onde Orograph.  Cendres Volcan.






- Altitude de l'aérodrome : 231 ft
- Code IATA : WTN


EGXW - RAF Waddington

DERNIER METAR :
  • 291820Z AUTO 23013KT 9999 FEW022/// 06/04 Q1019

METARs EXPIRÉS :
  • 291750Z AUTO 24016KT 9999 BKN023/// 07/03 Q1019
  • 291720Z AUTO 25014KT 9999 SCT020/// 07/03 Q1018
  • 291650Z AUTO 24010KT 9999 SCT019/// 07/03 Q1018
  • 291620Z AUTO 25008KT 9999 BKN019/// 07/03 Q1019
  • 291550Z AUTO 25009KT 9999 OVC019/// 08/03 Q1019

TAF TAF EGXW
Valide du 29 à 03h jusqu'au 29 à 21h UTC


290147Z 2903/2921 24008KT 9999 BKN018
TEMPO 2903/2910 BKN010
PROB30
TEMPO 2903/2904 3000 -RADZ BKN004
BECMG 2904/2906 BKN025
PROB30
TEMPO 2906/2910 BKN004
TEMPO 2910/2921 BKN018
PROB30
TEMPO 2920/2921 25015G25KT



MET'MAP, la Météo Aéronautique d'un coup d'oeil ! - Copyright ORBIFLY Décembre 2007 - Disclaimer

ORBIFLY MET'MAP TEAM :

Programmation & Développement : Alexandra Zaïnal
Sur une idée originale de : Baudouin d'Aumeries
Soutien technique & logistique : Manuel Goepfert
Assistance : Marc-Olivier Méhu




SOURCES & CREDITS :

   NOAA